Terminal Aerodrome Forecast
Issued by NWS

Home | Current Version | Previous Version | Text Only | Print | Product List | Glossary On
Versions: 1 2 3 4 5 6 7 8 9 10 11 12 13
312
FTUS45 KABQ 171743
TAFTCC
TAF
KTCC 171743Z 1718/1818 20010KT P6SM SCT080
     FM172100 19011G19KT P6SM SCT100 BKN150
      TEMPO 1722/1801 VRB15G30KT -TSRA BKN080CB
     FM180300 19010KT P6SM BKN120
     FM180600 20009KT P6SM SCT100
     FM181700 24008KT P6SM FEW150=

USA.gov is the U.S. government's official web portal to all federal, state and local government web resources and services.